createdAt,value
2018-07-15T00:01:17.752Z,74.50
2018-07-15T00:03:46.349Z,74.50
2018-07-15T00:06:15.656Z,74.50
2018-07-15T00:08:44.265Z,75.00
2018-07-15T00:11:12.869Z,75.10
2018-07-15T00:13:41.501Z,75.50
2018-07-15T00:16:10.101Z,75.50
2018-07-15T00:18:38.681Z,75.50
2018-07-15T00:21:07.810Z,75.60
2018-07-15T00:23:36.396Z,75.60
2018-07-15T00:26:05.512Z,75.80
2018-07-15T00:28:34.909Z,75.80
2018-07-15T00:31:03.522Z,76.30
2018-07-15T00:33:32.829Z,76.00
2018-07-15T00:36:02.576Z,76.20
2018-07-15T00:38:31.168Z,76.30
2018-07-15T00:40:59.782Z,76.40
2018-07-15T00:43:28.489Z,76.70
2018-07-15T00:45:57.085Z,76.70
2018-07-15T00:48:25.662Z,76.70
2018-07-15T00:50:54.293Z,77.00
2018-07-15T00:53:22.894Z,77.10
2018-07-15T00:55:52.061Z,77.30
2018-07-15T00:58:20.618Z,78.40
2018-07-15T01:00:54.514Z,78.50
2018-07-15T01:03:23.104Z,78.60
2018-07-15T01:05:51.679Z,78.70
2018-07-15T01:08:20.911Z,78.90
2018-07-15T01:10:49.502Z,79.00
2018-07-15T01:13:18.096Z,79.10
2018-07-15T01:15:46.695Z,79.30
2018-07-15T01:18:15.341Z,79.70
2018-07-15T01:20:44.123Z,79.70
2018-07-15T01:23:12.918Z,80.00
2018-07-15T01:25:41.533Z,79.90
2018-07-15T01:28:10.398Z,79.90
2018-07-15T01:30:39.423Z,79.80
2018-07-15T01:33:08.285Z,80.00
2018-07-15T01:35:36.860Z,79.90
2018-07-15T01:38:05.795Z,80.00
2018-07-15T01:40:34.382Z,80.20
2018-07-15T01:43:03.032Z,80.20
2018-07-15T01:45:31.830Z,80.40
2018-07-15T01:48:00.409Z,80.40
2018-07-15T01:50:29.136Z,80.50
2018-07-15T01:52:58.637Z,80.60
2018-07-15T01:55:27.221Z,80.60
2018-07-15T01:57:55.947Z,80.80
2018-07-15T02:00:25.499Z,80.90
2018-07-15T02:02:54.439Z,80.80
2018-07-15T02:05:23.032Z,81.10
2018-07-15T02:07:51.897Z,81.40
2018-07-15T02:10:20.585Z,81.70
2018-07-15T02:12:49.392Z,82.10
2018-07-15T02:15:17.994Z,82.10
2018-07-15T02:17:46.577Z,82.70
2018-07-15T02:20:15.966Z,82.20
2018-07-15T02:22:44.755Z,82.40
2018-07-15T02:25:13.336Z,82.90
2018-07-15T02:27:41.974Z,82.60
2018-07-15T02:30:10.581Z,82.50
2018-07-15T02:32:44.898Z,82.80
2018-07-15T02:35:24.182Z,83.00
2018-07-15T02:37:56.983Z,82.70
2018-07-15T02:47:58.599Z,84.50
2018-07-15T02:50:27.620Z,84.70
2018-07-15T02:52:56.821Z,84.70
2018-07-15T02:55:26.169Z,84.30
2018-07-15T02:57:56.416Z,84.20
2018-07-15T03:00:28.672Z,84.00
2018-07-15T03:02:58.433Z,84.00
2018-07-15T03:05:27.044Z,84.00
2018-07-15T03:07:55.873Z,84.90
2018-07-15T03:10:24.595Z,84.20
2018-07-15T03:12:53.226Z,84.20
2018-07-15T03:15:21.823Z,84.40
2018-07-15T03:17:50.738Z,84.30
2018-07-15T03:20:19.323Z,84.20
2018-07-15T03:22:47.898Z,84.30
2018-07-15T03:25:18.897Z,84.20
2018-07-15T03:27:47.562Z,84.20
2018-07-15T03:30:16.246Z,84.40
2018-07-15T03:32:44.841Z,84.60
2018-07-15T03:35:13.425Z,84.80
2018-07-15T03:37:42.148Z,85.20
2018-07-15T03:42:39.602Z,85.70
2018-07-15T03:45:08.205Z,85.40
2018-07-15T03:47:36.797Z,85.60
2018-07-15T03:50:05.425Z,85.70
2018-07-15T03:52:33.994Z,85.50
2018-07-15T03:55:03.433Z,85.60
2018-07-15T03:57:32.067Z,86.10
2018-07-15T04:02:28.901Z,85.50
2018-07-15T04:04:57.484Z,85.60
2018-07-15T04:09:55.060Z,85.80
2018-07-15T04:12:23.654Z,85.80
2018-07-15T04:14:52.240Z,85.80
2018-07-15T04:17:20.877Z,86.20
2018-07-15T04:19:50.272Z,85.90
2018-07-15T04:22:19.383Z,86.20
2018-07-15T04:24:47.980Z,86.40
2018-07-15T04:27:16.573Z,86.20
2018-07-15T04:32:13.379Z,86.40
2018-07-15T04:34:41.963Z,86.40
2018-07-15T04:37:10.579Z,86.40
2018-07-15T04:39:39.203Z,86.60
2018-07-15T04:42:07.812Z,86.60
2018-07-15T04:44:36.425Z,86.40
2018-07-15T04:47:05.098Z,86.80
2018-07-15T04:49:33.669Z,87.00
2018-07-15T04:52:02.974Z,87.40
2018-07-15T04:54:31.555Z,87.30
2018-07-15T04:57:00.149Z,87.50
2018-07-15T04:59:28.796Z,87.20
2018-07-15T05:01:57.405Z,87.10
2018-07-15T05:04:26.023Z,86.90
2018-07-15T05:06:54.621Z,86.90
2018-07-15T05:09:23.257Z,87.00
2018-07-15T05:11:51.875Z,87.20
2018-07-15T05:14:20.470Z,87.00
2018-07-15T05:16:49.056Z,86.90
2018-07-15T05:19:17.685Z,87.50
2018-07-15T05:21:46.281Z,87.50
2018-07-15T05:24:15.079Z,87.40
2018-07-15T05:26:43.656Z,87.40
2018-07-15T05:29:12.257Z,87.50
2018-07-15T05:31:40.828Z,87.50
2018-07-15T05:34:09.408Z,87.10
2018-07-15T05:36:38.015Z,87.00
2018-07-15T05:39:06.872Z,86.20
2018-07-15T05:41:35.465Z,87.10
2018-07-15T05:44:04.926Z,86.60
2018-07-15T05:46:33.561Z,86.70
2018-07-15T05:49:02.934Z,86.50
2018-07-15T05:51:31.553Z,86.80
2018-07-15T05:54:00.478Z,85.70
2018-07-15T05:56:29.092Z,86.50
2018-07-15T05:58:57.679Z,86.30
2018-07-15T06:01:26.401Z,85.80
2018-07-15T06:03:54.981Z,86.10
2018-07-15T06:06:24.065Z,85.20
2018-07-15T06:08:53.231Z,85.10
2018-07-15T06:11:21.900Z,85.40
2018-07-15T06:13:50.611Z,85.40
2018-07-15T06:16:19.413Z,85.40
2018-07-15T06:18:48.133Z,85.20
2018-07-15T06:21:17.895Z,85.00
2018-07-15T06:23:46.534Z,85.70
2018-07-15T06:26:15.189Z,84.70
2018-07-15T06:28:43.769Z,85.20
2018-07-15T06:31:12.382Z,85.70
2018-07-15T06:33:40.974Z,86.20
2018-07-15T06:36:10.165Z,86.70
2018-07-15T06:38:38.765Z,85.50
2018-07-15T06:41:07.509Z,85.60
2018-07-15T06:43:36.086Z,85.10
2018-07-15T06:46:05.362Z,84.80
2018-07-15T06:48:34.006Z,84.60
2018-07-15T06:51:03.358Z,84.60
2018-07-15T06:53:31.948Z,84.10
2018-07-15T06:56:00.634Z,84.50
2018-07-15T06:58:29.249Z,83.80
2018-07-15T07:00:57.835Z,83.30
2018-07-15T07:03:26.840Z,83.60
2018-07-15T07:05:56.488Z,82.50
2018-07-15T07:08:25.101Z,83.50
2018-07-15T07:10:54.392Z,83.30
2018-07-15T07:13:22.956Z,83.00
2018-07-15T07:15:51.621Z,83.00
2018-07-15T07:18:21.223Z,83.20
2018-07-15T07:20:50.532Z,82.70
2018-07-15T07:23:19.120Z,81.90
2018-07-15T07:25:47.795Z,81.80
2018-07-15T07:28:16.590Z,81.50
2018-07-15T07:30:45.267Z,80.60
2018-07-15T07:33:14.445Z,80.00
2018-07-15T07:35:43.135Z,80.20
2018-07-15T07:38:11.712Z,79.10
2018-07-15T07:40:40.300Z,79.20
2018-07-15T07:43:08.906Z,77.40
2018-07-15T07:45:37.626Z,77.00
2018-07-15T07:48:06.534Z,76.10
2018-07-15T07:50:35.181Z,75.60
2018-07-15T07:53:03.831Z,75.10
2018-07-15T07:55:32.437Z,75.20
2018-07-15T07:58:01.082Z,73.00
2018-07-15T08:00:30.807Z,74.00
2018-07-15T08:02:59.478Z,74.80
2018-07-15T08:05:28.071Z,73.70
2018-07-15T08:07:56.660Z,72.90
2018-07-15T08:10:25.308Z,72.40
2018-07-15T08:12:53.891Z,72.70
2018-07-15T08:15:22.563Z,71.40
2018-07-15T08:17:51.106Z,70.60
2018-07-15T08:20:19.707Z,70.10
2018-07-15T08:22:49.059Z,70.30
2018-07-15T08:25:17.663Z,71.20
2018-07-15T08:27:46.285Z,66.90
2018-07-15T08:30:26.097Z,70.20
2018-07-15T08:32:54.694Z,69.10
2018-07-15T08:35:23.393Z,67.60
2018-07-15T08:37:52.178Z,66.20
2018-07-15T08:40:20.873Z,64.60
2018-07-15T08:42:50.541Z,64.80
2018-07-15T08:45:20.684Z,63.60
2018-07-15T08:47:49.369Z,62.50
2018-07-15T08:50:18.703Z,62.20
2018-07-15T08:52:47.326Z,63.20
2018-07-15T08:55:16.009Z,61.40
2018-07-15T08:57:44.605Z,60.90
2018-07-15T09:00:13.199Z,62.60
2018-07-15T09:02:41.845Z,59.90
2018-07-15T09:05:10.504Z,61.60
2018-07-15T09:10:07.681Z,56.40
2018-07-15T09:15:05.446Z,55.30
2018-07-15T09:17:34.147Z,55.80
2018-07-15T09:20:02.872Z,55.20
2018-07-15T09:22:31.521Z,55.50
2018-07-15T09:25:00.132Z,52.90
2018-07-15T09:27:29.308Z,50.90
2018-07-15T09:29:57.918Z,49.90
2018-07-15T09:34:55.676Z,51.80
2018-07-15T09:37:24.312Z,49.80
2018-07-15T09:39:53.127Z,49.60
2018-07-15T09:42:21.729Z,47.90
2018-07-15T09:44:50.365Z,50.30
2018-07-15T09:47:18.984Z,51.30
2018-07-15T09:49:48.045Z,50.00
2018-07-15T09:52:16.784Z,49.00
2018-07-15T10:06:09.391Z,49.80
2018-07-15T10:14:19.529Z,49.90
2018-07-15T10:16:48.749Z,46.10
2018-07-15T10:19:17.515Z,44.50
2018-07-15T10:21:46.457Z,49.00
2018-07-15T10:24:15.957Z,44.20
2018-07-15T10:26:44.624Z,43.40
2018-07-15T10:31:41.528Z,43.30
2018-07-15T10:34:10.749Z,44.30
2018-07-15T10:36:40.100Z,42.20
2018-07-15T10:39:08.723Z,39.50
2018-07-15T10:44:06.222Z,42.50
2018-07-15T10:46:35.612Z,38.80
2018-07-15T10:49:04.620Z,42.20
2018-07-15T10:51:33.844Z,39.40
2018-07-15T10:54:03.360Z,38.20
2018-07-15T10:56:32.677Z,38.90
2018-07-15T10:59:01.513Z,35.00
2018-07-15T11:01:30.137Z,36.80
2018-07-15T11:03:59.410Z,37.40
2018-07-15T11:06:28.284Z,34.40
2018-07-15T11:08:57.451Z,38.10
2018-07-15T11:11:26.263Z,32.60
2018-07-15T11:13:54.767Z,33.70
2018-07-15T11:16:23.389Z,35.70
2018-07-15T11:18:51.990Z,36.20
2018-07-15T11:21:20.550Z,32.40
2018-07-15T11:23:49.206Z,33.00
2018-07-15T11:26:17.769Z,34.30
2018-07-15T11:28:46.497Z,34.80
2018-07-15T11:31:15.100Z,36.80
2018-07-15T11:33:44.554Z,35.30
2018-07-15T11:36:13.125Z,32.60
2018-07-15T11:38:41.665Z,31.60
2018-07-15T11:41:10.243Z,32.50
2018-07-15T11:43:39.159Z,34.70
2018-07-15T11:46:07.940Z,33.50
2018-07-15T11:48:36.677Z,30.20
2018-07-15T11:51:05.463Z,34.30
2018-07-15T11:53:34.400Z,33.50
2018-07-15T11:56:03.876Z,30.30
2018-07-15T11:58:32.794Z,32.90
2018-07-15T12:01:03.697Z,29.30
2018-07-15T12:03:32.534Z,30.70
2018-07-15T12:06:01.679Z,34.30
2018-07-15T12:08:30.438Z,31.80
2018-07-15T12:10:59.573Z,32.60
2018-07-15T12:13:28.428Z,29.90
2018-07-15T12:15:57.313Z,31.50
2018-07-15T12:18:27.170Z,29.90
2018-07-15T12:20:55.971Z,30.00
2018-07-15T12:23:24.997Z,29.50
2018-07-15T12:25:53.985Z,28.90
2018-07-15T12:28:23.615Z,33.80
2018-07-15T12:30:52.562Z,33.80
2018-07-15T12:33:21.621Z,30.00
2018-07-15T12:35:50.786Z,31.30
2018-07-15T12:38:20.114Z,31.20
2018-07-15T12:40:48.670Z,27.60
2018-07-15T12:43:17.317Z,29.60
2018-07-15T12:45:46.522Z,29.10
2018-07-15T12:48:15.089Z,29.30
2018-07-15T12:50:43.645Z,28.40
2018-07-15T12:53:12.206Z,27.50
2018-07-15T12:55:40.735Z,29.80
2018-07-15T12:58:09.264Z,28.60
2018-07-15T13:00:37.782Z,27.90
2018-07-15T13:03:06.320Z,27.60
2018-07-15T13:05:34.845Z,28.70
2018-07-15T13:08:04.025Z,25.80
2018-07-15T13:10:33.459Z,27.80
2018-07-15T13:13:01.983Z,26.70
2018-07-15T13:15:30.573Z,26.00
2018-07-15T13:17:59.109Z,26.70
2018-07-15T13:20:27.633Z,27.10
2018-07-15T13:25:24.402Z,27.00
2018-07-15T13:27:52.962Z,26.60
2018-07-15T13:30:22.267Z,25.90
2018-07-15T13:32:50.786Z,25.70
2018-07-15T13:35:19.855Z,27.20
2018-07-15T13:37:48.384Z,26.70
2018-07-15T13:40:16.918Z,27.40
2018-07-15T13:42:45.505Z,24.70
2018-07-15T13:45:14.018Z,28.50
2018-07-15T13:47:42.545Z,29.30
2018-07-15T13:50:11.183Z,27.90
2018-07-15T13:52:39.726Z,29.30
2018-07-15T13:55:08.453Z,29.90
2018-07-15T13:57:37.089Z,27.90
2018-07-15T14:00:07.341Z,27.50
2018-07-15T14:02:36.057Z,29.70
2018-07-15T14:05:05.097Z,31.80
2018-07-15T14:07:33.640Z,29.40
2018-07-15T14:10:02.806Z,29.50
2018-07-15T14:12:31.991Z,31.30
2018-07-15T14:15:01.174Z,29.90
2018-07-15T14:17:30.391Z,29.30
2018-07-15T14:19:58.999Z,29.30
2018-07-15T14:22:27.553Z,27.20
2018-07-15T14:24:56.100Z,26.80
2018-07-15T14:27:24.674Z,29.40
2018-07-15T14:29:53.181Z,28.60
2018-07-15T14:32:21.736Z,27.70
2018-07-15T14:34:50.470Z,28.70
2018-07-15T14:37:19.090Z,28.10
2018-07-15T14:39:49.114Z,27.30
2018-07-15T14:42:17.647Z,26.60
2018-07-15T14:44:46.277Z,26.70
2018-07-15T14:47:14.884Z,27.10
2018-07-15T14:49:43.446Z,27.00
2018-07-15T14:52:12.004Z,27.70
2018-07-15T14:57:09.435Z,26.80
2018-07-15T14:59:38.037Z,27.50
2018-07-15T15:02:06.669Z,28.30
2018-07-15T15:07:03.402Z,27.60
2018-07-15T15:09:31.980Z,27.80
2018-07-15T15:12:00.521Z,27.70
2018-07-15T15:14:29.114Z,27.40
2018-07-15T15:16:57.696Z,27.80
2018-07-15T15:19:26.240Z,28.90
2018-07-15T15:21:54.770Z,28.10
2018-07-15T15:24:23.290Z,28.50
2018-07-15T15:26:52.730Z,28.20
2018-07-15T15:29:21.249Z,27.30
2018-07-15T15:31:50.379Z,27.20
2018-07-15T15:34:19.019Z,26.70
2018-07-15T15:36:47.542Z,26.70
2018-07-15T15:39:16.057Z,27.00
2018-07-15T15:41:45.910Z,27.50
2018-07-15T15:44:15.178Z,25.70
2018-07-15T15:46:44.495Z,28.40
2018-07-15T15:49:13.004Z,28.30
2018-07-15T15:51:41.537Z,27.50
2018-07-15T15:54:10.106Z,27.40
2018-07-15T15:56:38.919Z,27.20
2018-07-15T15:59:07.514Z,26.90
2018-07-15T16:01:36.045Z,27.30
2018-07-15T16:04:04.684Z,27.30
2018-07-15T16:06:33.323Z,27.70
2018-07-15T16:09:01.948Z,27.00
2018-07-15T16:11:30.502Z,27.20
2018-07-15T16:13:59.039Z,28.20
2018-07-15T16:16:28.041Z,28.40
2018-07-15T16:18:56.535Z,29.40
2018-07-15T16:21:25.095Z,29.10
2018-07-15T16:23:53.650Z,29.50
2018-07-15T16:26:22.274Z,29.70
2018-07-15T16:28:50.949Z,29.40
2018-07-15T16:31:19.475Z,29.20
2018-07-15T16:33:48.078Z,29.10
2018-07-15T16:36:16.634Z,29.40
2018-07-15T16:38:45.190Z,30.00
2018-07-15T16:41:13.714Z,29.70
2018-07-15T16:43:42.329Z,29.80
2018-07-15T16:46:10.896Z,29.80
2018-07-15T16:48:39.427Z,29.60
2018-07-15T16:51:08.631Z,29.70
2018-07-15T16:56:06.581Z,30.00
2018-07-15T16:58:35.144Z,29.90
2018-07-15T17:01:03.682Z,30.00
2018-07-15T17:03:32.227Z,30.80
2018-07-15T17:06:00.771Z,29.70
2018-07-15T17:08:29.523Z,30.90
2018-07-15T17:10:58.342Z,30.50
2018-07-15T17:13:27.596Z,30.40
2018-07-15T17:15:56.128Z,30.50
2018-07-15T17:18:24.735Z,31.10
2018-07-15T17:23:21.691Z,31.80
2018-07-15T17:25:50.319Z,32.30
2018-07-15T17:28:18.945Z,32.30
2018-07-15T17:30:47.468Z,33.10
2018-07-15T17:35:44.458Z,33.50
2018-07-15T17:38:13.051Z,33.60
2018-07-15T17:40:42.141Z,34.20
2018-07-15T17:43:10.687Z,33.80
2018-07-15T17:45:39.546Z,34.30
2018-07-15T17:48:08.067Z,34.40
2018-07-15T17:50:36.627Z,35.10
2018-07-15T17:53:05.536Z,35.40
2018-07-15T17:55:34.064Z,35.30
2018-07-15T17:58:02.642Z,35.20
2018-07-15T18:00:31.708Z,36.50
2018-07-15T18:03:00.246Z,37.10
2018-07-15T18:05:29.067Z,36.80
2018-07-15T18:07:57.594Z,36.80
2018-07-15T18:10:26.672Z,37.20
2018-07-15T18:12:55.462Z,37.50
2018-07-15T18:15:24.023Z,38.00
2018-07-15T18:17:52.600Z,38.20
2018-07-15T18:20:21.416Z,38.90
2018-07-15T18:22:49.953Z,38.20
2018-07-15T18:25:18.934Z,39.70
2018-07-15T18:27:47.829Z,39.00
2018-07-15T18:30:16.746Z,40.90
2018-07-15T18:32:45.706Z,40.10
2018-07-15T18:35:14.577Z,40.80
2018-07-15T18:37:43.511Z,43.00
2018-07-15T18:40:12.397Z,43.50
2018-07-15T18:42:41.549Z,42.60
2018-07-15T18:45:10.869Z,41.70
2018-07-15T18:47:39.886Z,45.30
2018-07-15T18:50:09.063Z,43.30
2018-07-15T18:52:37.986Z,43.10
2018-07-15T18:55:06.861Z,42.80
2018-07-15T18:57:35.924Z,43.40
2018-07-15T19:00:05.023Z,44.90
2018-07-15T19:02:33.955Z,44.40
2018-07-15T19:05:02.968Z,44.00
2018-07-15T19:10:22.846Z,45.80
2018-07-15T19:18:42.593Z,47.10
2018-07-15T19:21:11.979Z,46.90
2018-07-15T19:23:41.059Z,47.60
2018-07-15T19:26:10.026Z,48.40
2018-07-15T19:28:39.107Z,48.50
2018-07-15T19:31:07.846Z,49.50
2018-07-15T19:33:36.680Z,50.20
2018-07-15T19:36:06.355Z,49.50
2018-07-15T19:38:35.350Z,49.70
2018-07-15T19:41:03.977Z,50.00
2018-07-15T19:43:32.641Z,50.50
2018-07-15T19:46:01.347Z,50.70
2018-07-15T19:48:30.132Z,50.70
2018-07-15T19:53:28.385Z,52.30
2018-07-15T19:58:30.400Z,52.90
2018-07-15T20:00:59.095Z,52.60
2018-07-15T20:03:28.554Z,52.90
2018-07-15T20:05:58.135Z,53.40
2018-07-15T20:08:26.778Z,53.50
2018-07-15T20:10:56.137Z,54.00
2018-07-15T20:13:25.354Z,54.00
2018-07-15T20:15:54.034Z,54.50
2018-07-15T20:18:22.734Z,54.80
2018-07-15T20:20:51.404Z,55.30
2018-07-15T20:23:22.008Z,55.60
2018-07-15T20:25:50.629Z,56.40
2018-07-15T20:28:19.467Z,56.50
2018-07-15T20:30:48.746Z,55.60
2018-07-15T20:33:18.106Z,55.60
2018-07-15T20:35:46.773Z,56.10
2018-07-15T20:38:15.466Z,56.70
2018-07-15T20:40:45.056Z,57.60
2018-07-15T20:43:13.727Z,57.50
2018-07-15T20:45:42.361Z,57.30
2018-07-15T20:48:11.631Z,57.40
2018-07-15T20:50:40.322Z,57.90
2018-07-15T20:53:08.994Z,57.80
2018-07-15T20:55:37.678Z,58.40
2018-07-15T20:58:06.310Z,58.30
2018-07-15T21:00:34.937Z,58.80
2018-07-15T21:03:03.581Z,59.10
2018-07-15T21:05:32.157Z,59.40
2018-07-15T21:08:00.838Z,59.40
2018-07-15T21:10:30.274Z,59.60
2018-07-15T21:12:59.631Z,60.00
2018-07-15T21:15:28.221Z,60.30
2018-07-15T21:17:56.862Z,60.40
2018-07-15T21:20:25.448Z,60.70
2018-07-15T21:22:54.768Z,60.90
2018-07-15T21:25:23.654Z,60.50
2018-07-15T21:27:52.276Z,60.80
2018-07-15T21:30:20.869Z,61.10
2018-07-15T21:32:49.573Z,61.20
2018-07-15T21:35:18.167Z,61.40
2018-07-15T21:37:47.731Z,61.50
2018-07-15T21:40:17.827Z,61.60
2018-07-15T21:42:46.426Z,61.90
2018-07-15T21:45:15.042Z,61.90
2018-07-15T21:47:43.725Z,62.10
2018-07-15T21:50:12.915Z,62.40
2018-07-15T21:52:41.452Z,62.70
2018-07-15T21:55:10.116Z,63.10
2018-07-15T21:57:38.740Z,63.40
2018-07-15T22:00:08.158Z,64.10
2018-07-15T22:02:37.044Z,64.00
2018-07-15T22:05:05.775Z,64.40
2018-07-15T22:07:45.445Z,64.10
2018-07-15T22:10:51.081Z,64.20
2018-07-15T22:13:19.675Z,64.30
2018-07-15T22:15:48.254Z,64.30
2018-07-15T22:18:17.342Z,64.70
2018-07-15T22:20:46.071Z,65.00
2018-07-15T22:23:14.700Z,66.00
2018-07-15T22:25:43.485Z,65.30
2018-07-15T22:28:14.182Z,65.40
2018-07-15T22:30:43.451Z,65.90
2018-07-15T22:35:40.355Z,66.70
2018-07-15T22:38:10.310Z,66.50
2018-07-15T22:40:38.984Z,66.50
2018-07-15T22:43:08.166Z,66.70
2018-07-15T22:45:36.758Z,66.80
2018-07-15T22:48:05.460Z,67.00
2018-07-15T22:50:34.037Z,67.40
2018-07-15T22:53:02.641Z,67.50
2018-07-15T22:55:31.313Z,67.90
2018-07-15T22:58:00.369Z,68.20
2018-07-15T23:00:29.014Z,68.40
2018-07-15T23:02:57.598Z,68.60
2018-07-15T23:06:36.717Z,68.70
2018-07-15T23:09:06.571Z,68.90
2018-07-15T23:11:35.879Z,69.20
2018-07-15T23:14:04.514Z,69.30
2018-07-15T23:16:33.956Z,69.50
2018-07-15T23:19:02.559Z,69.70
2018-07-15T23:21:32.486Z,69.80
2018-07-15T23:24:01.667Z,70.00
2018-07-15T23:26:30.434Z,70.40
2018-07-15T23:28:59.036Z,70.40
2018-07-15T23:31:27.667Z,70.60
2018-07-15T23:33:56.779Z,70.90
2018-07-15T23:36:25.609Z,70.90
2018-07-15T23:38:54.496Z,71.10
2018-07-15T23:41:23.098Z,71.20
2018-07-15T23:43:51.707Z,71.30
2018-07-15T23:46:21.049Z,71.40
2018-07-15T23:48:49.703Z,71.80
2018-07-15T23:51:18.423Z,71.70
2018-07-15T23:53:46.997Z,71.70
2018-07-15T23:56:15.689Z,71.80
2018-07-15T23:58:44.266Z,71.90
